Maui — WSLH — position and weather

sailwx.info

Track history (hours):
 
Tides and Currents Weather Stations Pressure Air Temp Water Temp Dewpoint Dewpoint Depression Visibility Wind Speed Wind Dir Waves Ship Positions

Maui

Owner: MATSON NAVIGATION CO, Oakland, CA. More information available from US FCC via Universal Licensing System and Coast Guard Vessel Documentation Center.

Last reported at 2017-Dec-08 18:15 UTC. Time now 2017-Dec-13 17:02 UTC.
Position N 37°48' W 122°18'.

Type: Cargo ship. MMSI: 366375000.

Date/timePositionNaut miles runAvg speedWind from/ knotsBaromVisibWave heightAir tempDewpointWater temp
2017-Dec-08 18:15N 37°48' W 122°18'0 0.0
2017-Dec-08 18:00N 37°48' W 122°18'0 0.0
2017-Dec-08 17:31N 37°48' W 122°18'0 0.0
2017-Dec-08 17:01N 37°48' W 122°18'0 0.0
2017-Dec-08 16:30N 37°48' W 122°18'0 0.0
2017-Dec-08 16:00N 37°48' W 122°18'0 0.0
2017-Dec-08 15:30N 37°48' W 122°18'0 0.0
2017-Dec-08 15:00N 37°48' W 122°18'0 0.0
2017-Dec-08 14:30N 37°48' W 122°18'0 0.0
2017-Dec-08 14:00N 37°48' W 122°18'0 0.0
2017-Dec-08 13:30N 37°48' W 122°18'0 0.0
2017-Dec-08 13:01N 37°48' W 122°18'0 0.0
2017-Dec-08 12:31N 37°48' W 122°18'0 0.0
2017-Dec-08 12:00N 37°48' W 122°18'0 0.0
2017-Dec-08 11:30N 37°48' W 122°18'0 0.0
2017-Dec-08 11:01N 37°48' W 122°18'0 0.0
2017-Dec-08 10:31N 37°48' W 122°18'0 0.0
2017-Dec-08 10:00N 37°48' W 122°18'0 0.0
2017-Dec-08 09:30N 37°48' W 122°18'1 1.4
2017-Dec-08 09:00N 37°48' W 122°19'4 7.1
2017-Dec-08 08:31N 37°49' W 122°23'815.7
2017-Dec-08 08:01N 37°47' W 122°33'815.1
2017-Dec-08 07:30N 37°44' W 122°42'611.2
2017-Dec-08 07:00N 37°40' W 122°47'1019.4
2017-Dec-08 06:30N 37°35' W 122°57'1122.3
2017-Dec-08 06:00N 37°29' W 123°09'1122.1
2017-Dec-08 05:30N 37°24' W 123°22'1121.9
2017-Dec-08 05:00N 37°19' W 123°34'1122.0
2017-Dec-08 04:30N 37°14' W 123°46'1922.1
2017-Dec-08 03:39N 37°05' W 124°07'322.3
2017-Dec-08 03:30N 37°03' W 124°10'1122.1
2017-Dec-08 03:00N 36°58' W 124°22'1122.1
2017-Dec-08 02:30N 36°52' W 124°34'1122.2
2017-Dec-08 02:00N 36°47' W 124°47'1122.6
2017-Dec-08 01:30N 36°42' W 124°59'1122.6
2017-Dec-08 01:00N 36°36' W 125°11'3522.0
2017-Dec-07 23:24N 36°20' W 125°50'1121.9
2017-Dec-07 22:54N 36°14' W 126°02'921.9
2017-Dec-07 22:30N 36°10' W 126°11'1122.2
2017-Dec-07 22:00N 36°05' W 126°23'1122.4
2017-Dec-07 21:30N 35°59' W 126°36'5622.5
2017-Dec-07 19:00N 35°33' W 127°37'1122.1
2017-Dec-07 18:30N 35°28' W 127°49'1122.1
2017-Dec-07 18:00N 35°23' W 128°01'  
Track history (hours):
 
Tides and Currents Weather Stations Pressure Air Temp Water Temp Dewpoint Dewpoint Depression Visibility Wind Speed Wind Dir Waves Ship Positions

Maui

Owner: MATSON NAVIGATION CO, Oakland, CA. More information available from US FCC via Universal Licensing System and Coast Guard Vessel Documentation Center.

Last reported at 2017-Dec-08 18:15 UTC. Time now 2017-Dec-13 17:02 UTC.
Position N 37°48' W 122°18'.

Type: Cargo ship. MMSI: 366375000.

Date/timePositionNaut miles runAvg speedWind from/ knotsBaromVisibWave heightAir tempDewpointWater temp
2017-Dec-08 18:15N 37°48' W 122°18'0 0.0
2017-Dec-08 18:00N 37°48' W 122°18'0 0.0
2017-Dec-08 17:31N 37°48' W 122°18'0 0.0
2017-Dec-08 17:01N 37°48' W 122°18'0 0.0
2017-Dec-08 16:30N 37°48' W 122°18'0 0.0
2017-Dec-08 16:00N 37°48' W 122°18'0 0.0
2017-Dec-08 15:30N 37°48' W 122°18'0 0.0
2017-Dec-08 15:00N 37°48' W 122°18'0 0.0
2017-Dec-08 14:30N 37°48' W 122°18'0 0.0
2017-Dec-08 14:00N 37°48' W 122°18'0 0.0
2017-Dec-08 13:30N 37°48' W 122°18'0 0.0
2017-Dec-08 13:01N 37°48' W 122°18'0 0.0
2017-Dec-08 12:31N 37°48' W 122°18'0 0.0
2017-Dec-08 12:00N 37°48' W 122°18'0 0.0
2017-Dec-08 11:30N 37°48' W 122°18'0 0.0
2017-Dec-08 11:01N 37°48' W 122°18'0 0.0
2017-Dec-08 10:31N 37°48' W 122°18'0 0.0
2017-Dec-08 10:00N 37°48' W 122°18'0 0.0
2017-Dec-08 09:30N 37°48' W 122°18'1 1.4
2017-Dec-08 09:00N 37°48' W 122°19'4 7.1
2017-Dec-08 08:31N 37°49' W 122°23'815.7
2017-Dec-08 08:01N 37°47' W 122°33'815.1
2017-Dec-08 07:30N 37°44' W 122°42'611.2
2017-Dec-08 07:00N 37°40' W 122°47'1019.4
2017-Dec-08 06:30N 37°35' W 122°57'1122.3
2017-Dec-08 06:00N 37°29' W 123°09'1122.1
2017-Dec-08 05:30N 37°24' W 123°22'1121.9
2017-Dec-08 05:00N 37°19' W 123°34'1122.0
2017-Dec-08 04:30N 37°14' W 123°46'1922.1
2017-Dec-08 03:39N 37°05' W 124°07'322.3
2017-Dec-08 03:30N 37°03' W 124°10'1122.1
2017-Dec-08 03:00N 36°58' W 124°22'1122.1
2017-Dec-08 02:30N 36°52' W 124°34'1122.2
2017-Dec-08 02:00N 36°47' W 124°47'1122.6
2017-Dec-08 01:30N 36°42' W 124°59'1122.6
2017-Dec-08 01:00N 36°36' W 125°11'3522.0
2017-Dec-07 23:24N 36°20' W 125°50'1121.9
2017-Dec-07 22:54N 36°14' W 126°02'921.9
2017-Dec-07 22:30N 36°10' W 126°11'1122.2
2017-Dec-07 22:00N 36°05' W 126°23'1122.4
2017-Dec-07 21:30N 35°59' W 126°36'5622.5
2017-Dec-07 19:00N 35°33' W 127°37'1122.1
2017-Dec-07 18:30N 35°28' W 127°49'1122.1
2017-Dec-07 18:00N 35°23' W 128°01'  

Dump ship's entire track history